createdAt,value
2017-08-25T00:01:42.456Z,16.30
2017-08-25T00:04:09.043Z,16.20
2017-08-25T00:06:35.601Z,16.20
2017-08-25T00:09:02.217Z,16.30
2017-08-25T00:11:28.809Z,16.30
2017-08-25T00:13:55.358Z,16.30
2017-08-25T00:16:21.931Z,16.20
2017-08-25T00:18:48.470Z,16.20
2017-08-25T00:21:14.789Z,16.20
2017-08-25T00:23:41.117Z,16.10
2017-08-25T00:26:07.464Z,16.20
2017-08-25T00:28:33.785Z,16.10
2017-08-25T00:31:00.124Z,16.10
2017-08-25T00:33:26.469Z,16.00
2017-08-25T00:35:52.844Z,16.00
2017-08-25T00:38:19.184Z,16.00
2017-08-25T00:40:45.507Z,15.90
2017-08-25T00:43:11.876Z,15.90
2017-08-25T00:45:38.236Z,15.80
2017-08-25T00:48:04.584Z,15.80
2017-08-25T00:50:30.945Z,15.70
2017-08-25T00:52:57.312Z,15.80
2017-08-25T00:55:24.288Z,15.80
2017-08-25T00:57:50.844Z,15.80
2017-08-25T01:00:17.422Z,15.70
2017-08-25T01:02:44.122Z,15.80
2017-08-25T01:05:10.768Z,15.80
2017-08-25T01:07:37.361Z,15.80
2017-08-25T01:10:04.101Z,15.80
2017-08-25T01:12:30.720Z,15.80
2017-08-25T01:14:57.241Z,15.80
2017-08-25T01:17:23.833Z,15.80
2017-08-25T01:19:50.395Z,15.80
2017-08-25T01:22:16.982Z,15.70
2017-08-25T01:24:43.613Z,15.70
2017-08-25T01:27:10.183Z,15.70
2017-08-25T01:29:36.753Z,15.70
2017-08-25T01:32:03.313Z,15.70
2017-08-25T01:34:29.896Z,15.80
2017-08-25T01:36:56.520Z,15.80
2017-08-25T01:39:23.162Z,15.80
2017-08-25T01:41:49.772Z,15.80
2017-08-25T01:44:16.350Z,15.80
2017-08-25T01:46:42.985Z,15.90
2017-08-25T01:49:09.582Z,15.80
2017-08-25T01:51:36.132Z,15.80
2017-08-25T01:54:02.700Z,15.80
2017-08-25T01:56:29.316Z,15.80
2017-08-25T01:58:55.872Z,15.70
2017-08-25T02:01:22.223Z,15.80
2017-08-25T02:03:48.572Z,15.80
2017-08-25T02:06:14.928Z,15.80
2017-08-25T02:08:41.345Z,15.80
2017-08-25T02:11:07.722Z,15.70
2017-08-25T02:13:34.095Z,15.60
2017-08-25T02:16:00.453Z,15.70
2017-08-25T02:18:26.913Z,15.60
2017-08-25T02:20:53.285Z,15.60
2017-08-25T02:23:19.636Z,15.50
2017-08-25T02:25:46.148Z,15.60
2017-08-25T02:28:12.491Z,15.50
2017-08-25T02:30:38.836Z,15.60
2017-08-25T02:33:05.189Z,15.60
2017-08-25T02:35:31.498Z,15.70
2017-08-25T02:37:57.804Z,15.70
2017-08-25T02:40:24.965Z,15.70
2017-08-25T02:42:51.523Z,15.70
2017-08-25T02:45:18.053Z,15.80
2017-08-25T02:47:44.675Z,15.50
2017-08-25T02:50:11.247Z,15.50
2017-08-25T02:52:37.836Z,15.50
2017-08-25T02:55:04.366Z,15.50
2017-08-25T02:57:30.924Z,15.50
2017-08-25T02:59:57.453Z,15.50
2017-08-25T03:02:23.962Z,15.40
2017-08-25T03:04:50.514Z,15.40
2017-08-25T03:07:17.055Z,15.40
2017-08-25T03:09:43.597Z,15.40
2017-08-25T03:12:10.190Z,15.40
2017-08-25T03:14:36.756Z,15.40
2017-08-25T03:17:03.296Z,15.40
2017-08-25T03:19:29.902Z,15.40
2017-08-25T03:21:56.437Z,15.40
2017-08-25T03:24:23.020Z,15.40
2017-08-25T03:26:49.590Z,15.40
2017-08-25T03:29:16.124Z,15.40
2017-08-25T03:31:42.645Z,15.50
2017-08-25T03:34:09.202Z,15.20
2017-08-25T03:36:36.210Z,15.20
2017-08-25T03:39:02.840Z,15.20
2017-08-25T03:41:29.638Z,15.20
2017-08-25T03:43:55.954Z,15.20
2017-08-25T03:46:22.269Z,15.10
2017-08-25T03:48:48.583Z,15.00
2017-08-25T03:51:14.921Z,15.00
2017-08-25T03:53:41.281Z,14.60
2017-08-25T03:56:07.597Z,15.00
2017-08-25T03:58:33.985Z,14.90
2017-08-25T04:01:00.334Z,14.90
2017-08-25T04:03:26.645Z,14.80
2017-08-25T04:05:52.982Z,14.80
2017-08-25T04:08:19.300Z,14.80
2017-08-25T04:10:45.658Z,14.80
2017-08-25T04:13:12.002Z,14.60
2017-08-25T04:15:38.322Z,14.70
2017-08-25T04:18:04.654Z,14.70
2017-08-25T04:20:30.976Z,14.60
2017-08-25T04:22:57.320Z,14.60
2017-08-25T04:25:24.421Z,14.50
2017-08-25T04:27:50.990Z,14.50
2017-08-25T04:30:17.496Z,14.50
2017-08-25T04:32:44.131Z,14.40
2017-08-25T04:35:10.780Z,14.40
2017-08-25T04:37:37.364Z,14.40
2017-08-25T04:40:03.988Z,14.40
2017-08-25T04:42:30.645Z,14.30
2017-08-25T04:44:57.215Z,14.40
2017-08-25T04:47:23.766Z,14.40
2017-08-25T04:49:50.333Z,14.40
2017-08-25T04:52:16.856Z,14.40
2017-08-25T04:54:43.416Z,14.40
2017-08-25T04:57:10.036Z,14.40
2017-08-25T04:59:36.621Z,14.40
2017-08-25T05:02:03.164Z,14.50
2017-08-25T05:04:29.852Z,14.50
2017-08-25T05:06:56.404Z,14.50
2017-08-25T05:09:22.990Z,14.50
2017-08-25T05:11:49.509Z,14.60
2017-08-25T05:14:16.069Z,14.70
2017-08-25T05:16:42.605Z,14.70
2017-08-25T05:19:09.172Z,14.70
2017-08-25T05:21:35.776Z,14.80
2017-08-25T05:24:02.354Z,14.80
2017-08-25T05:26:28.889Z,14.90
2017-08-25T05:28:55.452Z,14.90
2017-08-25T05:31:22.658Z,15.00
2017-08-25T05:33:49.226Z,15.00
2017-08-25T05:36:15.838Z,15.00
2017-08-25T05:38:42.372Z,15.00
2017-08-25T05:41:09.002Z,15.10
2017-08-25T05:43:35.549Z,15.10
2017-08-25T05:46:02.106Z,15.20
2017-08-25T05:48:28.681Z,15.30
2017-08-25T05:50:55.000Z,15.40
2017-08-25T05:53:21.320Z,15.40
2017-08-25T05:55:47.656Z,15.50
2017-08-25T05:58:14.004Z,15.60
2017-08-25T06:00:40.477Z,15.60
2017-08-25T06:03:06.790Z,15.70
2017-08-25T06:05:33.494Z,15.40
2017-08-25T06:07:59.820Z,15.80
2017-08-25T06:10:26.193Z,15.90
2017-08-25T06:12:52.565Z,15.90
2017-08-25T06:15:18.880Z,15.80
2017-08-25T06:17:45.227Z,15.80
2017-08-25T06:20:11.563Z,15.80
2017-08-25T06:22:37.889Z,15.80
2017-08-25T06:25:06.192Z,15.80
2017-08-25T06:27:32.497Z,15.80
2017-08-25T06:29:58.836Z,15.90
2017-08-25T06:32:25.176Z,15.90
2017-08-25T06:34:51.649Z,16.00
2017-08-25T06:37:18.208Z,16.10
2017-08-25T06:39:44.869Z,16.10
2017-08-25T06:42:11.560Z,16.20
2017-08-25T06:44:38.076Z,16.20
2017-08-25T06:47:04.621Z,16.30
2017-08-25T06:49:31.164Z,16.30
2017-08-25T06:51:57.778Z,16.30
2017-08-25T06:54:24.320Z,16.40
2017-08-25T06:56:50.868Z,16.50
2017-08-25T06:59:17.433Z,16.60
2017-08-25T07:01:43.992Z,16.60
2017-08-25T07:04:10.524Z,16.70
2017-08-25T07:06:37.070Z,16.80
2017-08-25T07:09:03.704Z,16.80
2017-08-25T07:11:30.319Z,17.00
2017-08-25T07:13:56.906Z,17.20
2017-08-25T07:16:23.432Z,17.30
2017-08-25T07:18:49.989Z,17.30
2017-08-25T07:21:16.526Z,17.50
2017-08-25T07:23:43.107Z,17.70
2017-08-25T07:26:09.660Z,17.70
2017-08-25T07:28:36.208Z,17.90
2017-08-25T07:31:02.516Z,18.00
2017-08-25T07:33:28.844Z,18.20
2017-08-25T07:35:55.181Z,18.30
2017-08-25T07:38:21.709Z,18.30
2017-08-25T07:40:48.116Z,18.20
2017-08-25T07:43:14.456Z,18.20
2017-08-25T07:45:42.616Z,18.30
2017-08-25T07:48:08.936Z,18.50
2017-08-25T07:50:35.270Z,18.70
2017-08-25T07:53:01.810Z,18.70
2017-08-25T07:55:28.333Z,18.70
2017-08-25T07:57:54.877Z,18.60
2017-08-25T08:00:26.612Z,18.60
2017-08-25T08:02:53.166Z,18.80
2017-08-25T08:05:19.690Z,19.00
2017-08-25T08:07:46.258Z,19.30
2017-08-25T08:10:12.805Z,19.40
2017-08-25T08:12:39.373Z,19.50
2017-08-25T08:15:11.848Z,19.40
2017-08-25T08:17:38.413Z,19.40
2017-08-25T08:20:04.941Z,19.90
2017-08-25T08:22:31.480Z,20.30
2017-08-25T08:24:57.998Z,21.20
2017-08-25T08:27:24.528Z,21.80
2017-08-25T08:29:55.064Z,22.20
2017-08-25T08:32:21.592Z,22.70
2017-08-25T08:34:48.121Z,23.10
2017-08-25T08:37:14.616Z,22.90
2017-08-25T08:39:41.200Z,23.30
2017-08-25T08:42:07.720Z,23.40
2017-08-25T08:44:40.330Z,24.00
2017-08-25T08:47:06.883Z,24.40
2017-08-25T08:49:33.420Z,24.20
2017-08-25T08:51:59.961Z,24.00
2017-08-25T08:54:26.512Z,23.60
2017-08-25T08:56:53.031Z,23.10
2017-08-25T08:59:24.037Z,22.60
2017-08-25T09:01:50.580Z,22.20
2017-08-25T09:04:17.081Z,21.80
2017-08-25T09:06:43.641Z,21.80
2017-08-25T09:09:10.189Z,21.70
2017-08-25T09:11:36.727Z,21.60
2017-08-25T09:14:08.391Z,21.50
2017-08-25T09:16:34.897Z,21.40
2017-08-25T09:19:01.436Z,21.50
2017-08-25T09:21:28.009Z,21.60
2017-08-25T09:23:54.329Z,21.70
2017-08-25T09:26:20.664Z,21.60
2017-08-25T09:31:18.294Z,21.60
2017-08-25T09:33:44.638Z,21.60
2017-08-25T09:36:11.002Z,21.50
2017-08-25T09:38:37.318Z,21.70
2017-08-25T09:41:03.801Z,21.90
2017-08-25T09:43:30.221Z,22.00
2017-08-25T09:45:58.240Z,22.20
2017-08-25T09:48:24.654Z,22.20
2017-08-25T09:50:50.998Z,22.10
2017-08-25T09:53:17.367Z,22.10
2017-08-25T09:55:43.727Z,22.20
2017-08-25T09:58:10.170Z,22.10
2017-08-25T10:00:36.490Z,22.00
2017-08-25T10:03:06.364Z,22.00
2017-08-25T10:05:32.877Z,22.10
2017-08-25T10:07:59.436Z,22.30
2017-08-25T10:10:25.947Z,22.50
2017-08-25T10:12:52.545Z,22.50
2017-08-25T10:15:19.168Z,22.40
2017-08-25T10:20:19.162Z,22.60
2017-08-25T10:22:45.825Z,22.50
2017-08-25T10:25:12.416Z,22.50
2017-08-25T10:27:39.003Z,22.40
2017-08-25T10:30:05.595Z,22.30
2017-08-25T10:32:34.113Z,22.40
2017-08-25T10:35:12.883Z,22.50
2017-08-25T10:41:05.452Z,22.60
2017-08-25T10:43:56.832Z,22.70
2017-08-25T10:46:23.428Z,22.90
2017-08-25T10:48:49.953Z,23.00
2017-08-25T10:51:16.481Z,22.90
2017-08-25T10:53:43.009Z,22.90
2017-08-25T10:56:13.075Z,23.10
2017-08-25T10:58:39.625Z,23.00
2017-08-25T11:01:06.202Z,23.00
2017-08-25T11:03:32.740Z,23.20
2017-08-25T11:05:59.262Z,23.30
2017-08-25T11:08:25.795Z,23.30
2017-08-25T11:10:52.316Z,23.50
2017-08-25T11:13:18.858Z,23.50
2017-08-25T11:15:47.252Z,23.50
2017-08-25T11:18:13.788Z,23.30
2017-08-25T11:20:40.344Z,23.40
2017-08-25T11:23:06.891Z,23.40
2017-08-25T11:25:33.425Z,23.50
2017-08-25T11:27:59.968Z,23.20
2017-08-25T11:30:26.483Z,23.60
2017-08-25T11:32:53.038Z,23.60
2017-08-25T11:35:23.434Z,23.60
2017-08-25T11:37:49.988Z,23.90
2017-08-25T11:40:17.505Z,23.90
2017-08-25T11:42:44.107Z,24.00
2017-08-25T11:45:10.636Z,23.90
2017-08-25T11:47:37.199Z,23.90
2017-08-25T11:50:03.708Z,23.80
2017-08-25T11:52:32.628Z,23.90
2017-08-25T11:54:59.177Z,23.90
2017-08-25T11:57:25.812Z,23.90
2017-08-25T11:59:52.121Z,24.00
2017-08-25T12:02:18.431Z,23.90
2017-08-25T12:04:44.766Z,23.80
2017-08-25T12:07:11.123Z,24.00
2017-08-25T12:09:37.432Z,24.10
2017-08-25T12:12:03.762Z,24.20
2017-08-25T12:14:30.093Z,24.40
2017-08-25T12:17:03.157Z,24.30
2017-08-25T12:19:29.538Z,24.20
2017-08-25T12:21:55.845Z,24.20
2017-08-25T12:24:22.151Z,24.10
2017-08-25T12:26:48.463Z,24.20
2017-08-25T12:29:14.778Z,24.20
2017-08-25T12:31:47.167Z,24.30
2017-08-25T12:34:13.562Z,24.30
2017-08-25T12:36:39.896Z,24.20
2017-08-25T12:39:06.220Z,24.10
2017-08-25T12:41:32.549Z,24.00
2017-08-25T12:43:59.056Z,24.30
2017-08-25T12:46:29.613Z,24.30
2017-08-25T12:48:56.186Z,24.50
2017-08-25T12:51:22.864Z,24.40
2017-08-25T12:53:49.399Z,24.50
2017-08-25T12:56:15.920Z,24.40
2017-08-25T12:58:42.462Z,24.30
2017-08-25T13:01:13.898Z,24.30
2017-08-25T13:03:40.441Z,24.30
2017-08-25T13:06:06.978Z,24.40
2017-08-25T13:08:33.554Z,24.40
2017-08-25T13:11:00.087Z,24.30
2017-08-25T13:13:26.657Z,24.20
2017-08-25T13:15:59.227Z,24.30
2017-08-25T13:18:25.806Z,24.10
2017-08-25T13:20:52.336Z,24.30
2017-08-25T13:23:18.855Z,24.10
2017-08-25T13:25:45.374Z,24.00
2017-08-25T13:28:11.955Z,24.10
2017-08-25T13:30:42.429Z,24.20
2017-08-25T13:33:08.978Z,24.10
2017-08-25T13:35:35.581Z,24.10
2017-08-25T13:38:02.137Z,24.10
2017-08-25T13:40:28.690Z,24.00
2017-08-25T13:42:55.236Z,24.20
2017-08-25T13:45:27.185Z,24.00
2017-08-25T13:47:53.715Z,24.10
2017-08-25T13:50:20.293Z,24.30
2017-08-25T13:52:46.933Z,24.30
2017-08-25T13:55:13.375Z,24.40
2017-08-25T13:57:39.904Z,24.30
2017-08-25T14:00:10.608Z,24.30
2017-08-25T14:02:37.188Z,24.20
2017-08-25T14:05:03.780Z,24.00
2017-08-25T14:07:30.254Z,23.90
2017-08-25T14:09:56.856Z,23.90
2017-08-25T14:12:23.299Z,24.00
2017-08-25T14:14:56.637Z,24.10
2017-08-25T14:17:23.207Z,24.00
2017-08-25T14:19:49.718Z,24.10
2017-08-25T14:22:16.249Z,24.50
2017-08-25T14:24:42.582Z,24.40
2017-08-25T14:27:08.917Z,24.50
2017-08-25T14:29:35.229Z,24.40
2017-08-25T14:32:01.551Z,24.20
2017-08-25T14:34:27.887Z,24.40
2017-08-25T14:36:54.206Z,24.60
2017-08-25T14:39:20.569Z,24.60
2017-08-25T14:41:46.936Z,24.30
2017-08-25T14:44:13.367Z,24.10
2017-08-25T14:46:39.683Z,24.20
2017-08-25T14:49:06.152Z,24.00
2017-08-25T14:51:32.481Z,24.30
2017-08-25T14:53:58.784Z,24.20
2017-08-25T14:56:25.133Z,24.20
2017-08-25T14:58:51.461Z,24.10
2017-08-25T15:01:18.048Z,24.00
2017-08-25T15:03:44.611Z,23.80
2017-08-25T15:06:11.169Z,23.80
2017-08-25T15:08:37.729Z,24.00
2017-08-25T15:11:04.281Z,23.90
2017-08-25T15:13:30.868Z,23.60
2017-08-25T15:15:57.521Z,23.70
2017-08-25T15:18:24.212Z,23.70
2017-08-25T15:20:50.852Z,23.90
2017-08-25T15:23:17.508Z,24.00
2017-08-25T15:25:44.287Z,23.90
2017-08-25T15:28:10.916Z,23.80
2017-08-25T15:30:37.484Z,23.60
2017-08-25T15:33:04.028Z,23.60
2017-08-25T15:35:30.690Z,23.70
2017-08-25T15:37:57.460Z,23.60
2017-08-25T15:40:24.076Z,23.60
2017-08-25T15:42:50.604Z,23.50
2017-08-25T15:45:17.240Z,23.60
2017-08-25T15:47:43.849Z,23.70
2017-08-25T15:50:10.410Z,23.70
2017-08-25T15:52:37.075Z,23.60
2017-08-25T15:55:03.641Z,23.60
2017-08-25T15:57:30.312Z,23.60
2017-08-25T15:59:57.036Z,23.50
2017-08-25T16:02:23.614Z,23.40
2017-08-25T16:04:50.148Z,23.50
2017-08-25T16:07:16.566Z,23.50
2017-08-25T16:09:42.917Z,23.30
2017-08-25T16:12:09.340Z,23.40
2017-08-25T16:14:35.642Z,23.30
2017-08-25T16:17:01.968Z,23.20
2017-08-25T16:19:28.505Z,23.20
2017-08-25T16:21:54.925Z,23.20
2017-08-25T16:24:21.238Z,23.10
2017-08-25T16:26:47.586Z,23.10
2017-08-25T16:29:14.055Z,23.00
2017-08-25T16:31:40.357Z,23.00
2017-08-25T16:34:06.711Z,23.00
2017-08-25T16:36:33.147Z,22.90
2017-08-25T16:39:00.255Z,23.00
2017-08-25T16:41:26.579Z,23.00
2017-08-25T16:43:52.934Z,23.00
2017-08-25T16:46:19.466Z,23.00
2017-08-25T16:48:46.001Z,23.00
2017-08-25T16:51:12.592Z,22.90
2017-08-25T16:53:39.186Z,23.30
2017-08-25T16:56:05.725Z,23.00
2017-08-25T16:58:32.244Z,22.90
2017-08-25T17:00:58.788Z,22.80
2017-08-25T17:03:25.332Z,22.70
2017-08-25T17:05:51.929Z,22.70
2017-08-25T17:08:18.445Z,22.80
2017-08-25T17:10:45.039Z,22.70
2017-08-25T17:13:11.619Z,22.70
2017-08-25T17:15:38.331Z,22.70
2017-08-25T17:18:04.895Z,22.80
2017-08-25T17:20:31.440Z,22.70
2017-08-25T17:22:57.981Z,22.50
2017-08-25T17:25:24.497Z,22.50
2017-08-25T17:27:51.079Z,22.40
2017-08-25T17:30:17.601Z,22.40
2017-08-25T17:32:45.489Z,22.40
2017-08-25T17:35:12.110Z,22.40
2017-08-25T17:37:38.717Z,22.40
2017-08-25T17:40:05.268Z,22.20
2017-08-25T17:42:31.988Z,22.20
2017-08-25T17:44:58.536Z,22.20
2017-08-25T17:47:29.042Z,22.10
2017-08-25T17:49:55.584Z,22.00
2017-08-25T17:52:22.114Z,22.10
2017-08-25T17:54:48.652Z,22.10
2017-08-25T17:57:15.024Z,22.00
2017-08-25T17:59:41.342Z,21.90
2017-08-25T18:02:07.676Z,21.90
2017-08-25T18:04:33.996Z,21.90
2017-08-25T18:07:06.830Z,21.80
2017-08-25T18:09:33.142Z,21.80
2017-08-25T18:11:59.458Z,21.70
2017-08-25T18:14:25.815Z,21.70
2017-08-25T18:16:52.131Z,21.70
2017-08-25T18:19:18.461Z,21.60
2017-08-25T18:21:47.556Z,21.70
2017-08-25T18:24:13.892Z,21.60
2017-08-25T18:26:40.232Z,21.70
2017-08-25T18:29:06.540Z,21.60
2017-08-25T18:31:33.448Z,21.60
2017-08-25T18:33:59.749Z,21.50
2017-08-25T18:36:26.061Z,21.50
2017-08-25T18:38:52.376Z,21.60
2017-08-25T18:41:25.335Z,21.50
2017-08-25T18:43:51.849Z,21.50
2017-08-25T18:46:18.384Z,21.50
2017-08-25T18:48:45.031Z,21.50
2017-08-25T18:51:11.586Z,21.50
2017-08-25T18:53:38.102Z,21.50
2017-08-25T18:56:08.263Z,21.50
2017-08-25T18:58:34.838Z,21.60
2017-08-25T19:01:01.373Z,21.50
2017-08-25T19:03:27.925Z,21.40
2017-08-25T19:05:54.455Z,21.40
2017-08-25T19:08:21.030Z,21.30
2017-08-25T19:10:47.752Z,21.40
2017-08-25T19:13:18.330Z,21.40
2017-08-25T19:15:44.860Z,21.30
2017-08-25T19:18:11.433Z,21.30
2017-08-25T19:20:38.029Z,21.20
2017-08-25T19:23:05.146Z,21.20
2017-08-25T19:25:31.837Z,21.30
2017-08-25T19:28:04.396Z,21.30
2017-08-25T19:30:30.997Z,21.20
2017-08-25T19:32:57.527Z,21.20
2017-08-25T19:35:24.074Z,21.30
2017-08-25T19:37:50.627Z,21.20
2017-08-25T19:40:17.151Z,21.20
2017-08-25T19:42:46.837Z,21.10
2017-08-25T19:45:13.392Z,21.10
2017-08-25T19:47:39.924Z,21.10
2017-08-25T19:50:06.545Z,21.30
2017-08-25T19:52:33.222Z,21.10
2017-08-25T19:54:59.792Z,21.10
2017-08-25T19:57:31.239Z,21.10
2017-08-25T19:59:57.604Z,21.10
2017-08-25T20:02:23.910Z,21.10
2017-08-25T20:04:50.231Z,21.00
2017-08-25T20:07:16.726Z,21.00
2017-08-25T20:09:43.147Z,21.10
2017-08-25T20:12:09.451Z,21.00
2017-08-25T20:14:41.910Z,21.10
2017-08-25T20:17:08.220Z,21.00
2017-08-25T20:19:34.671Z,20.90
2017-08-25T20:22:00.977Z,21.00
2017-08-25T20:24:27.312Z,21.00
2017-08-25T20:26:53.681Z,21.00
2017-08-25T20:29:21.724Z,20.90
2017-08-25T20:31:48.088Z,21.00
2017-08-25T20:34:14.415Z,20.90
2017-08-25T20:36:40.737Z,20.90
2017-08-25T20:39:07.039Z,20.90
2017-08-25T20:41:33.349Z,20.80
2017-08-25T20:43:59.651Z,20.80
2017-08-25T20:46:27.500Z,20.70
2017-08-25T20:49:00.142Z,20.60
2017-08-25T20:51:26.669Z,20.50
2017-08-25T20:53:53.206Z,20.50
2017-08-25T20:56:19.775Z,20.50
2017-08-25T20:58:46.420Z,20.40
2017-08-25T21:01:13.067Z,20.50
2017-08-25T21:03:39.621Z,20.50
2017-08-25T21:06:06.125Z,20.40
2017-08-25T21:08:32.752Z,20.30
2017-08-25T21:10:59.270Z,20.30
2017-08-25T21:13:25.791Z,20.30
2017-08-25T21:15:52.398Z,20.20
2017-08-25T21:18:18.972Z,20.20
2017-08-25T21:20:45.513Z,20.10
2017-08-25T21:23:12.104Z,20.10
2017-08-25T21:25:38.785Z,20.00
2017-08-25T21:28:05.315Z,20.00
2017-08-25T21:30:31.868Z,20.00
2017-08-25T21:32:58.473Z,19.90
2017-08-25T21:35:25.099Z,19.90
2017-08-25T21:37:51.625Z,19.90
2017-08-25T21:40:18.165Z,19.90
2017-08-25T21:42:44.698Z,19.90
2017-08-25T21:45:11.250Z,19.90
2017-08-25T21:47:37.804Z,19.80
2017-08-25T21:50:04.317Z,19.80
2017-08-25T21:52:30.964Z,19.70
2017-08-25T21:54:57.506Z,19.70
2017-08-25T21:57:24.085Z,19.60
2017-08-25T21:59:51.138Z,19.70
2017-08-25T22:02:17.709Z,19.70
2017-08-25T22:04:44.246Z,19.60
2017-08-25T22:07:10.795Z,19.20
2017-08-25T22:09:37.129Z,19.40
2017-08-25T22:12:03.444Z,19.40
2017-08-25T22:14:29.758Z,19.50
2017-08-25T22:16:56.079Z,19.40
2017-08-25T22:19:22.419Z,19.40
2017-08-25T22:21:48.748Z,19.40
2017-08-25T22:24:15.077Z,19.40
2017-08-25T22:26:41.664Z,19.00
2017-08-25T22:29:08.013Z,19.30
2017-08-25T22:31:34.321Z,19.30
2017-08-25T22:34:00.630Z,19.40
2017-08-25T22:36:26.942Z,19.40
2017-08-25T22:38:53.496Z,19.50
2017-08-25T22:41:20.085Z,19.40
2017-08-25T22:43:46.596Z,19.40
2017-08-25T22:46:13.159Z,19.40
2017-08-25T22:48:39.710Z,19.60
2017-08-25T22:51:06.264Z,19.60
2017-08-25T22:53:32.832Z,19.60
2017-08-25T22:55:59.369Z,19.60
2017-08-25T22:58:26.046Z,19.50
2017-08-25T23:00:52.576Z,19.40
2017-08-25T23:03:19.191Z,19.40
2017-08-25T23:05:45.744Z,19.30
2017-08-25T23:08:12.336Z,19.40
2017-08-25T23:10:39.014Z,19.40
2017-08-25T23:13:05.558Z,19.40
2017-08-25T23:15:32.200Z,19.40
2017-08-25T23:17:58.733Z,19.40
2017-08-25T23:20:25.244Z,19.40
2017-08-25T23:22:51.761Z,19.50
2017-08-25T23:25:18.296Z,19.40
2017-08-25T23:27:44.852Z,19.30
2017-08-25T23:30:11.401Z,19.30
2017-08-25T23:32:38.024Z,19.30
2017-08-25T23:35:04.545Z,19.30
2017-08-25T23:37:31.072Z,19.30
2017-08-25T23:39:57.589Z,19.30
2017-08-25T23:42:23.911Z,19.30
2017-08-25T23:44:50.218Z,19.30
2017-08-25T23:47:16.533Z,19.30
2017-08-25T23:49:42.851Z,19.30
2017-08-25T23:52:09.215Z,19.30
2017-08-25T23:54:35.542Z,19.30
2017-08-25T23:57:01.844Z,19.30
2017-08-25T23:59:28.169Z,19.30
